sensor_id;sensor_type;location;lat;lon;timestamp;P1;durP1;ratioP1;P2;durP2;ratioP2
32108;SDS011;18624;50.042;8.436;2023-04-03T00:00:34;2.70;;;1.65;;
32108;SDS011;18624;50.042;8.436;2023-04-03T00:03:01;4.55;;;3.80;;
32108;SDS011;18624;50.042;8.436;2023-04-03T00:05:27;5.53;;;4.18;;
32108;SDS011;18624;50.042;8.436;2023-04-03T00:07:54;4.13;;;3.63;;
32108;SDS011;18624;50.042;8.436;2023-04-03T00:10:21;4.88;;;3.08;;
32108;SDS011;18624;50.042;8.436;2023-04-03T00:12:47;11.85;;;4.75;;
32108;SDS011;18624;50.042;8.436;2023-04-03T00:15:14;4.32;;;3.47;;
32108;SDS011;18624;50.042;8.436;2023-04-03T00:17:40;4.40;;;3.20;;
32108;SDS011;18624;50.042;8.436;2023-04-03T00:20:07;3.95;;;3.05;;
32108;SDS011;18624;50.042;8.436;2023-04-03T00:22:34;3.85;;;3.45;;
32108;SDS011;18624;50.042;8.436;2023-04-03T00:25:01;5.03;;;3.47;;
32108;SDS011;18624;50.042;8.436;2023-04-03T00:27:27;4.50;;;2.90;;
32108;SDS011;18624;50.042;8.436;2023-04-03T00:29:54;3.63;;;2.92;;
32108;SDS011;18624;50.042;8.436;2023-04-03T00:32:20;4.32;;;3.00;;
32108;SDS011;18624;50.042;8.436;2023-04-03T00:34:47;4.22;;;3.17;;
32108;SDS011;18624;50.042;8.436;2023-04-03T00:37:14;3.47;;;3.05;;
32108;SDS011;18624;50.042;8.436;2023-04-03T00:39:41;4.05;;;3.17;;
32108;SDS011;18624;50.042;8.436;2023-04-03T00:42:07;5.15;;;3.60;;
32108;SDS011;18624;50.042;8.436;2023-04-03T00:47:01;4.65;;;3.53;;
32108;SDS011;18624;50.042;8.436;2023-04-03T00:49:29;3.63;;;3.33;;
32108;SDS011;18624;50.042;8.436;2023-04-03T00:51:56;6.22;;;3.60;;
32108;SDS011;18624;50.042;8.436;2023-04-03T00:54:23;3.63;;;3.08;;
32108;SDS011;18624;50.042;8.436;2023-04-03T00:56:51;3.58;;;3.28;;
32108;SDS011;18624;50.042;8.436;2023-04-03T00:59:21;4.03;;;3.60;;
32108;SDS011;18624;50.042;8.436;2023-04-03T01:01:53;3.67;;;3.30;;
32108;SDS011;18624;50.042;8.436;2023-04-03T01:04:31;5.55;;;3.88;;
32108;SDS011;18624;50.042;8.436;2023-04-03T01:07:01;4.53;;;3.25;;
32108;SDS011;18624;50.042;8.436;2023-04-03T01:09:32;6.63;;;3.70;;
32108;SDS011;18624;50.042;8.436;2023-04-03T01:15:13;6.97;;;4.72;;
32108;SDS011;18624;50.042;8.436;2023-04-03T01:17:41;4.80;;;3.53;;
32108;SDS011;18624;50.042;8.436;2023-04-03T01:20:20;5.53;;;3.15;;
32108;SDS011;18624;50.042;8.436;2023-04-03T01:28:09;7.53;;;3.97;;
32108;SDS011;18624;50.042;8.436;2023-04-03T01:30:47;3.90;;;3.50;;
32108;SDS011;18624;50.042;8.436;2023-04-03T01:33:16;4.07;;;3.65;;
32108;SDS011;18624;50.042;8.436;2023-04-03T01:35:43;4.45;;;4.03;;
32108;SDS011;18624;50.042;8.436;2023-04-03T01:38:09;3.95;;;3.55;;
32108;SDS011;18624;50.042;8.436;2023-04-03T01:40:36;6.28;;;4.35;;
32108;SDS011;18624;50.042;8.436;2023-04-03T01:43:04;4.40;;;3.45;;
32108;SDS011;18624;50.042;8.436;2023-04-03T01:45:30;4.72;;;3.92;;
32108;SDS011;18624;50.042;8.436;2023-04-03T01:47:57;4.15;;;3.42;;
32108;SDS011;18624;50.042;8.436;2023-04-03T01:50:25;5.32;;;3.72;;
32108;SDS011;18624;50.042;8.436;2023-04-03T01:52:51;4.45;;;4.03;;
32108;SDS011;18624;50.042;8.436;2023-04-03T01:55:18;7.15;;;3.92;;
32108;SDS011;18624;50.042;8.436;2023-04-03T01:57:44;5.20;;;4.03;;
32108;SDS011;18624;50.042;8.436;2023-04-03T02:00:11;4.82;;;3.45;;
32108;SDS011;18624;50.042;8.436;2023-04-03T02:02:38;4.10;;;3.58;;
32108;SDS011;18624;50.042;8.436;2023-04-03T02:05:05;5.55;;;4.28;;
32108;SDS011;18624;50.042;8.436;2023-04-03T02:07:32;6.63;;;3.72;;
32108;SDS011;18624;50.042;8.436;2023-04-03T02:09:59;6.03;;;3.60;;
32108;SDS011;18624;50.042;8.436;2023-04-03T02:12:25;4.93;;;3.45;;
32108;SDS011;18624;50.042;8.436;2023-04-03T02:14:52;4.65;;;3.75;;
32108;SDS011;18624;50.042;8.436;2023-04-03T02:17:18;7.85;;;3.85;;
32108;SDS011;18624;50.042;8.436;2023-04-03T02:19:46;5.93;;;3.88;;
32108;SDS011;18624;50.042;8.436;2023-04-03T02:22:12;4.90;;;3.97;;
32108;SDS011;18624;50.042;8.436;2023-04-03T02:24:39;6.57;;;4.78;;
32108;SDS011;18624;50.042;8.436;2023-04-03T02:27:06;8.60;;;4.57;;
32108;SDS011;18624;50.042;8.436;2023-04-03T02:29:32;6.60;;;4.40;;
32108;SDS011;18624;50.042;8.436;2023-04-03T02:31:59;6.57;;;4.30;;
32108;SDS011;18624;50.042;8.436;2023-04-03T02:34:26;5.32;;;3.92;;
32108;SDS011;18624;50.042;8.436;2023-04-03T02:36:53;6.78;;;3.78;;
32108;SDS011;18624;50.042;8.436;2023-04-03T02:39:19;4.60;;;3.75;;
32108;SDS011;18624;50.042;8.436;2023-04-03T02:41:46;8.10;;;4.10;;
32108;SDS011;18624;50.042;8.436;2023-04-03T02:44:18;7.20;;;3.97;;
32108;SDS011;18624;50.042;8.436;2023-04-03T02:46:45;4.32;;;3.92;;
32108;SDS011;18624;50.042;8.436;2023-04-03T02:49:11;6.40;;;3.58;;
32108;SDS011;18624;50.042;8.436;2023-04-03T02:51:38;4.65;;;3.42;;
32108;SDS011;18624;50.042;8.436;2023-04-03T02:54:05;3.20;;;2.90;;
32108;SDS011;18624;50.042;8.436;2023-04-03T02:56:33;5.15;;;3.53;;
32108;SDS011;18624;50.042;8.436;2023-04-03T02:59:00;4.28;;;3.33;;
32108;SDS011;18624;50.042;8.436;2023-04-03T03:01:27;3.83;;;3.40;;
32108;SDS011;18624;50.042;8.436;2023-04-03T03:03:58;6.60;;;3.50;;
32108;SDS011;18624;50.042;8.436;2023-04-03T03:06:26;5.43;;;3.75;;
32108;SDS011;18624;50.042;8.436;2023-04-03T03:08:53;7.40;;;3.67;;
32108;SDS011;18624;50.042;8.436;2023-04-03T03:11:20;4.20;;;3.83;;
32108;SDS011;18624;50.042;8.436;2023-04-03T03:13:47;4.45;;;3.53;;
32108;SDS011;18624;50.042;8.436;2023-04-03T03:16:13;7.38;;;3.60;;
32108;SDS011;18624;50.042;8.436;2023-04-03T03:18:40;7.72;;;4.40;;
32108;SDS011;18624;50.042;8.436;2023-04-03T03:21:06;3.67;;;3.08;;
32108;SDS011;18624;50.042;8.436;2023-04-03T03:23:34;6.25;;;4.03;;
32108;SDS011;18624;50.042;8.436;2023-04-03T03:26:02;5.50;;;3.67;;
32108;SDS011;18624;50.042;8.436;2023-04-03T03:28:33;4.13;;;3.75;;
32108;SDS011;18624;50.042;8.436;2023-04-03T03:31:00;5.95;;;3.50;;
32108;SDS011;18624;50.042;8.436;2023-04-03T03:33:29;6.05;;;3.35;;
32108;SDS011;18624;50.042;8.436;2023-04-03T03:35:56;6.53;;;3.83;;
32108;SDS011;18624;50.042;8.436;2023-04-03T03:38:23;7.95;;;4.60;;
32108;SDS011;18624;50.042;8.436;2023-04-03T03:40:50;7.72;;;4.32;;
32108;SDS011;18624;50.042;8.436;2023-04-03T03:43:19;9.02;;;4.75;;
32108;SDS011;18624;50.042;8.436;2023-04-03T03:45:51;5.32;;;3.80;;
32108;SDS011;18624;50.042;8.436;2023-04-03T03:48:19;6.18;;;3.78;;
32108;SDS011;18624;50.042;8.436;2023-04-03T03:50:47;7.40;;;3.60;;
32108;SDS011;18624;50.042;8.436;2023-04-03T03:53:15;10.48;;;4.43;;
32108;SDS011;18624;50.042;8.436;2023-04-03T03:55:43;4.97;;;4.10;;
32108;SDS011;18624;50.042;8.436;2023-04-03T03:58:10;7.55;;;3.97;;
32108;SDS011;18624;50.042;8.436;2023-04-03T04:00:36;8.15;;;4.18;;
32108;SDS011;18624;50.042;8.436;2023-04-03T04:03:03;7.32;;;4.47;;
32108;SDS011;18624;50.042;8.436;2023-04-03T04:05:30;4.85;;;4.20;;
32108;SDS011;18624;50.042;8.436;2023-04-03T04:07:59;6.32;;;4.05;;
32108;SDS011;18624;50.042;8.436;2023-04-03T04:10:26;8.82;;;4.28;;
32108;SDS011;18624;50.042;8.436;2023-04-03T04:12:53;5.45;;;4.20;;
32108;SDS011;18624;50.042;8.436;2023-04-03T04:15:23;6.10;;;4.63;;
32108;SDS011;18624;50.042;8.436;2023-04-03T04:17:52;4.60;;;3.55;;
32108;SDS011;18624;50.042;8.436;2023-04-03T04:20:19;4.97;;;3.70;;
32108;SDS011;18624;50.042;8.436;2023-04-03T04:22:47;5.43;;;3.53;;
32108;SDS011;18624;50.042;8.436;2023-04-03T04:25:14;4.57;;;3.90;;
32108;SDS011;18624;50.042;8.436;2023-04-03T04:27:41;7.88;;;4.93;;
32108;SDS011;18624;50.042;8.436;2023-04-03T04:30:08;6.75;;;3.90;;
32108;SDS011;18624;50.042;8.436;2023-04-03T04:32:36;6.32;;;4.05;;
32108;SDS011;18624;50.042;8.436;2023-04-03T04:35:03;5.75;;;4.05;;
32108;SDS011;18624;50.042;8.436;2023-04-03T04:37:33;5.70;;;4.25;;
32108;SDS011;18624;50.042;8.436;2023-04-03T04:40:00;7.63;;;4.38;;
32108;SDS011;18624;50.042;8.436;2023-04-03T04:42:26;5.50;;;4.10;;
32108;SDS011;18624;50.042;8.436;2023-04-03T04:44:53;7.10;;;4.18;;
32108;SDS011;18624;50.042;8.436;2023-04-03T04:47:20;6.85;;;4.22;;
32108;SDS011;18624;50.042;8.436;2023-04-03T04:49:46;7.88;;;4.40;;
32108;SDS011;18624;50.042;8.436;2023-04-03T04:52:14;6.05;;;4.07;;
32108;SDS011;18624;50.042;8.436;2023-04-03T04:54:40;7.18;;;4.57;;
32108;SDS011;18624;50.042;8.436;2023-04-03T04:57:08;6.20;;;3.85;;
32108;SDS011;18624;50.042;8.436;2023-04-03T04:59:34;5.60;;;4.10;;
32108;SDS011;18624;50.042;8.436;2023-04-03T05:02:01;4.28;;;3.80;;
32108;SDS011;18624;50.042;8.436;2023-04-03T05:04:29;5.22;;;3.55;;
32108;SDS011;18624;50.042;8.436;2023-04-03T05:07:03;5.47;;;3.97;;
32108;SDS011;18624;50.042;8.436;2023-04-03T05:09:32;5.20;;;4.10;;
32108;SDS011;18624;50.042;8.436;2023-04-03T05:11:59;7.47;;;5.00;;
32108;SDS011;18624;50.042;8.436;2023-04-03T05:14:30;7.15;;;4.75;;
32108;SDS011;18624;50.042;8.436;2023-04-03T05:17:01;9.63;;;4.60;;
32108;SDS011;18624;50.042;8.436;2023-04-03T05:19:30;9.05;;;4.30;;
32108;SDS011;18624;50.042;8.436;2023-04-03T05:21:58;7.50;;;4.88;;
32108;SDS011;18624;50.042;8.436;2023-04-03T05:24:25;7.97;;;4.53;;
32108;SDS011;18624;50.042;8.436;2023-04-03T05:26:52;11.38;;;5.28;;
32108;SDS011;18624;50.042;8.436;2023-04-03T05:29:21;8.10;;;4.80;;
32108;SDS011;18624;50.042;8.436;2023-04-03T05:31:49;5.97;;;4.18;;
32108;SDS011;18624;50.042;8.436;2023-04-03T05:34:16;7.75;;;4.15;;
32108;SDS011;18624;50.042;8.436;2023-04-03T05:36:45;6.28;;;4.78;;
32108;SDS011;18624;50.042;8.436;2023-04-03T05:39:13;6.30;;;4.00;;
32108;SDS011;18624;50.042;8.436;2023-04-03T05:41:42;8.43;;;4.25;;
32108;SDS011;18624;50.042;8.436;2023-04-03T05:44:11;6.18;;;4.05;;
32108;SDS011;18624;50.042;8.436;2023-04-03T05:46:39;7.43;;;5.10;;
32108;SDS011;18624;50.042;8.436;2023-04-03T05:49:08;11.00;;;5.68;;
32108;SDS011;18624;50.042;8.436;2023-04-03T05:51:36;10.65;;;4.82;;
32108;SDS011;18624;50.042;8.436;2023-04-03T05:54:29;6.88;;;4.50;;
32108;SDS011;18624;50.042;8.436;2023-04-03T05:57:23;8.95;;;4.60;;
32108;SDS011;18624;50.042;8.436;2023-04-03T05:59:50;5.85;;;4.97;;
32108;SDS011;18624;50.042;8.436;2023-04-03T06:02:18;6.90;;;4.47;;
32108;SDS011;18624;50.042;8.436;2023-04-03T06:04:47;10.00;;;4.85;;
32108;SDS011;18624;50.042;8.436;2023-04-03T06:07:18;5.90;;;4.03;;
32108;SDS011;18624;50.042;8.436;2023-04-03T06:09:48;7.18;;;4.28;;
32108;SDS011;18624;50.042;8.436;2023-04-03T06:12:16;5.65;;;4.93;;
32108;SDS011;18624;50.042;8.436;2023-04-03T06:14:43;14.05;;;6.13;;
32108;SDS011;18624;50.042;8.436;2023-04-03T06:17:13;9.07;;;4.90;;
32108;SDS011;18624;50.042;8.436;2023-04-03T06:19:41;7.93;;;5.20;;
32108;SDS011;18624;50.042;8.436;2023-04-03T06:22:08;5.22;;;4.28;;
32108;SDS011;18624;50.042;8.436;2023-04-03T06:24:35;9.05;;;5.88;;
32108;SDS011;18624;50.042;8.436;2023-04-03T06:27:02;7.43;;;5.55;;
32108;SDS011;18624;50.042;8.436;2023-04-03T06:29:28;12.52;;;5.72;;
32108;SDS011;18624;50.042;8.436;2023-04-03T06:31:55;7.25;;;4.38;;
32108;SDS011;18624;50.042;8.436;2023-04-03T06:34:22;6.90;;;4.22;;
32108;SDS011;18624;50.042;8.436;2023-04-03T06:36:49;6.38;;;4.30;;
32108;SDS011;18624;50.042;8.436;2023-04-03T06:39:17;7.55;;;4.32;;
32108;SDS011;18624;50.042;8.436;2023-04-03T06:41:47;7.70;;;4.65;;
32108;SDS011;18624;50.042;8.436;2023-04-03T06:44:16;10.57;;;4.97;;
32108;SDS011;18624;50.042;8.436;2023-04-03T06:46:43;9.57;;;4.72;;
32108;SDS011;18624;50.042;8.436;2023-04-03T06:49:11;6.95;;;5.47;;
32108;SDS011;18624;50.042;8.436;2023-04-03T06:51:38;6.53;;;5.40;;
32108;SDS011;18624;50.042;8.436;2023-04-03T06:54:05;7.32;;;4.80;;
32108;SDS011;18624;50.042;8.436;2023-04-03T06:56:32;9.13;;;5.25;;
32108;SDS011;18624;50.042;8.436;2023-04-03T06:58:59;6.43;;;4.13;;
32108;SDS011;18624;50.042;8.436;2023-04-03T07:01:26;6.35;;;5.05;;
32108;SDS011;18624;50.042;8.436;2023-04-03T07:03:54;8.55;;;4.45;;
32108;SDS011;18624;50.042;8.436;2023-04-03T07:06:21;8.98;;;5.05;;
32108;SDS011;18624;50.042;8.436;2023-04-03T07:08:51;6.63;;;4.55;;
32108;SDS011;18624;50.042;8.436;2023-04-03T07:11:17;4.82;;;4.13;;
32108;SDS011;18624;50.042;8.436;2023-04-03T07:13:44;8.65;;;4.47;;
32108;SDS011;18624;50.042;8.436;2023-04-03T07:16:10;6.97;;;4.68;;
32108;SDS011;18624;50.042;8.436;2023-04-03T07:18:38;8.77;;;5.15;;
32108;SDS011;18624;50.042;8.436;2023-04-03T07:21:05;6.20;;;4.53;;
32108;SDS011;18624;50.042;8.436;2023-04-03T07:23:32;7.40;;;5.50;;
32108;SDS011;18624;50.042;8.436;2023-04-03T07:25:59;9.55;;;5.07;;
32108;SDS011;18624;50.042;8.436;2023-04-03T07:28:28;9.20;;;5.20;;
32108;SDS011;18624;50.042;8.436;2023-04-03T07:31:03;9.60;;;5.40;;
32108;SDS011;18624;50.042;8.436;2023-04-03T07:33:32;11.50;;;4.97;;
32108;SDS011;18624;50.042;8.436;2023-04-03T07:35:59;7.22;;;4.85;;
32108;SDS011;18624;50.042;8.436;2023-04-03T07:38:26;7.40;;;4.80;;
32108;SDS011;18624;50.042;8.436;2023-04-03T07:40:53;6.53;;;4.35;;
32108;SDS011;18624;50.042;8.436;2023-04-03T07:43:20;7.25;;;4.75;;
32108;SDS011;18624;50.042;8.436;2023-04-03T07:45:48;8.48;;;5.15;;
32108;SDS011;18624;50.042;8.436;2023-04-03T07:48:19;6.28;;;4.65;;
32108;SDS011;18624;50.042;8.436;2023-04-03T07:50:46;5.78;;;4.68;;
32108;SDS011;18624;50.042;8.436;2023-04-03T07:53:13;7.63;;;5.65;;
32108;SDS011;18624;50.042;8.436;2023-04-03T07:55:40;9.00;;;5.57;;
32108;SDS011;18624;50.042;8.436;2023-04-03T07:58:10;7.30;;;4.82;;
32108;SDS011;18624;50.042;8.436;2023-04-03T08:00:37;6.90;;;4.95;;
32108;SDS011;18624;50.042;8.436;2023-04-03T08:03:04;12.32;;;6.13;;
32108;SDS011;18624;50.042;8.436;2023-04-03T08:05:31;7.78;;;4.75;;
32108;SDS011;18624;50.042;8.436;2023-04-03T08:07:58;7.75;;;4.93;;
32108;SDS011;18624;50.042;8.436;2023-04-03T08:10:24;9.15;;;5.63;;
32108;SDS011;18624;50.042;8.436;2023-04-03T08:12:51;12.27;;;5.00;;
32108;SDS011;18624;50.042;8.436;2023-04-03T08:15:17;9.38;;;4.95;;
32108;SDS011;18624;50.042;8.436;2023-04-03T08:17:44;6.35;;;4.75;;
32108;SDS011;18624;50.042;8.436;2023-04-03T08:20:10;5.88;;;4.93;;
32108;SDS011;18624;50.042;8.436;2023-04-03T08:22:37;10.30;;;5.65;;
32108;SDS011;18624;50.042;8.436;2023-04-03T08:25:04;7.80;;;5.38;;
32108;SDS011;18624;50.042;8.436;2023-04-03T08:27:31;7.28;;;5.25;;
32108;SDS011;18624;50.042;8.436;2023-04-03T08:29:57;7.53;;;4.85;;
32108;SDS011;18624;50.042;8.436;2023-04-03T08:32:24;6.10;;;5.35;;
32108;SDS011;18624;50.042;8.436;2023-04-03T08:34:50;9.25;;;5.25;;
32108;SDS011;18624;50.042;8.436;2023-04-03T08:37:17;9.55;;;5.25;;
32108;SDS011;18624;50.042;8.436;2023-04-03T08:39:43;7.07;;;4.60;;
32108;SDS011;18624;50.042;8.436;2023-04-03T08:42:14;7.55;;;5.25;;
32108;SDS011;18624;50.042;8.436;2023-04-03T08:44:47;8.82;;;6.07;;
32108;SDS011;18624;50.042;8.436;2023-04-03T08:50:07;8.57;;;4.32;;
32108;SDS011;18624;50.042;8.436;2023-04-03T08:57:57;7.97;;;5.13;;
32108;SDS011;18624;50.042;8.436;2023-04-03T09:00:38;6.88;;;5.03;;
32108;SDS011;18624;50.042;8.436;2023-04-03T09:03:16;6.70;;;5.22;;
32108;SDS011;18624;50.042;8.436;2023-04-03T09:05:51;7.82;;;5.07;;
32108;SDS011;18624;50.042;8.436;2023-04-03T09:08:24;7.53;;;4.18;;
32108;SDS011;18624;50.042;8.436;2023-04-03T09:10:58;6.47;;;5.13;;
32108;SDS011;18624;50.042;8.436;2023-04-03T09:13:54;9.50;;;4.63;;
32108;SDS011;18624;50.042;8.436;2023-04-03T09:18:54;6.68;;;4.75;;
32108;SDS011;18624;50.042;8.436;2023-04-03T09:21:32;6.47;;;4.32;;
32108;SDS011;18624;50.042;8.436;2023-04-03T09:24:04;8.02;;;4.65;;
32108;SDS011;18624;50.042;8.436;2023-04-03T09:26:35;8.10;;;4.97;;
32108;SDS011;18624;50.042;8.436;2023-04-03T09:29:07;8.82;;;4.38;;
32108;SDS011;18624;50.042;8.436;2023-04-03T09:31:38;7.85;;;4.60;;
32108;SDS011;18624;50.042;8.436;2023-04-03T09:34:27;10.73;;;4.90;;
32108;SDS011;18624;50.042;8.436;2023-04-03T09:36:58;9.60;;;5.82;;
32108;SDS011;18624;50.042;8.436;2023-04-03T09:39:32;4.70;;;4.18;;
32108;SDS011;18624;50.042;8.436;2023-04-03T09:42:19;6.25;;;4.93;;
32108;SDS011;18624;50.042;8.436;2023-04-03T09:44:53;8.70;;;4.38;;
32108;SDS011;18624;50.042;8.436;2023-04-03T09:47:33;9.32;;;4.85;;
32108;SDS011;18624;50.042;8.436;2023-04-03T09:52:41;5.72;;;4.20;;
32108;SDS011;18624;50.042;8.436;2023-04-03T09:55:14;6.72;;;4.40;;
32108;SDS011;18624;50.042;8.436;2023-04-03T09:57:41;6.57;;;4.80;;
32108;SDS011;18624;50.042;8.436;2023-04-03T10:00:41;9.32;;;5.93;;
32108;SDS011;18624;50.042;8.436;2023-04-03T10:03:22;5.82;;;5.22;;
32108;SDS011;18624;50.042;8.436;2023-04-03T10:05:52;8.90;;;5.32;;
32108;SDS011;18624;50.042;8.436;2023-04-03T10:08:27;5.82;;;4.55;;
32108;SDS011;18624;50.042;8.436;2023-04-03T10:11:11;8.30;;;5.10;;
32108;SDS011;18624;50.042;8.436;2023-04-03T10:13:51;7.53;;;4.95;;
32108;SDS011;18624;50.042;8.436;2023-04-03T10:16:41;6.43;;;5.38;;
32108;SDS011;18624;50.042;8.436;2023-04-03T10:19:21;6.90;;;4.82;;
32108;SDS011;18624;50.042;8.436;2023-04-03T10:24:57;8.07;;;5.40;;
32108;SDS011;18624;50.042;8.436;2023-04-03T10:30:29;5.72;;;4.57;;
32108;SDS011;18624;50.042;8.436;2023-04-03T10:38:33;7.05;;;4.78;;
32108;SDS011;18624;50.042;8.436;2023-04-03T10:44:45;6.25;;;4.75;;
32108;SDS011;18624;50.042;8.436;2023-04-03T10:47:42;7.63;;;4.90;;
32108;SDS011;18624;50.042;8.436;2023-04-03T10:58:56;5.68;;;5.10;;
32108;SDS011;18624;50.042;8.436;2023-04-03T11:01:33;7.68;;;4.72;;
32108;SDS011;18624;50.042;8.436;2023-04-03T11:04:02;6.80;;;5.40;;
32108;SDS011;18624;50.042;8.436;2023-04-03T11:07:17;6.10;;;4.95;;
32108;SDS011;18624;50.042;8.436;2023-04-03T11:09:34;6.65;;;4.70;;
32108;SDS011;18624;50.042;8.436;2023-04-03T11:12:46;5.13;;;4.60;;
32108;SDS011;18624;50.042;8.436;2023-04-03T11:14:59;7.82;;;5.35;;
32108;SDS011;18624;50.042;8.436;2023-04-03T11:17:39;7.65;;;5.78;;
32108;SDS011;18624;50.042;8.436;2023-04-03T11:22:48;6.93;;;5.00;;
32108;SDS011;18624;50.042;8.436;2023-04-03T11:25:20;6.95;;;4.97;;
32108;SDS011;18624;50.042;8.436;2023-04-03T11:27:55;5.32;;;4.65;;
32108;SDS011;18624;50.042;8.436;2023-04-03T11:35:59;6.07;;;4.78;;
32108;SDS011;18624;50.042;8.436;2023-04-03T11:38:51;7.43;;;4.75;;
32108;SDS011;18624;50.042;8.436;2023-04-03T11:41:28;5.85;;;4.65;;
32108;SDS011;18624;50.042;8.436;2023-04-03T11:46:48;5.85;;;4.53;;
32108;SDS011;18624;50.042;8.436;2023-04-03T12:16:20;5.32;;;4.70;;
32108;SDS011;18624;50.042;8.436;2023-04-03T12:29:20;5.22;;;4.55;;
32108;SDS011;18624;50.042;8.436;2023-04-03T12:40:58;5.80;;;4.78;;
32108;SDS011;18624;50.042;8.436;2023-04-03T12:44:02;7.80;;;4.82;;
32108;SDS011;18624;50.042;8.436;2023-04-03T12:46:43;6.47;;;5.25;;
32108;SDS011;18624;50.042;8.436;2023-04-03T12:49:26;7.60;;;5.85;;
32108;SDS011;18624;50.042;8.436;2023-04-03T12:52:02;7.03;;;4.70;;
32108;SDS011;18624;50.042;8.436;2023-04-03T12:54:32;5.95;;;4.70;;
32108;SDS011;18624;50.042;8.436;2023-04-03T12:59:41;5.95;;;4.78;;
32108;SDS011;18624;50.042;8.436;2023-04-03T13:02:26;5.68;;;4.70;;
32108;SDS011;18624;50.042;8.436;2023-04-03T13:04:59;7.38;;;4.85;;
32108;SDS011;18624;50.042;8.436;2023-04-03T13:07:36;5.97;;;4.72;;
32108;SDS011;18624;50.042;8.436;2023-04-03T13:12:35;5.50;;;4.60;;
32108;SDS011;18624;50.042;8.436;2023-04-03T13:15:13;8.48;;;4.65;;
32108;SDS011;18624;50.042;8.436;2023-04-03T13:17:44;5.30;;;4.80;;
32108;SDS011;18624;50.042;8.436;2023-04-03T13:20:16;5.40;;;4.00;;
32108;SDS011;18624;50.042;8.436;2023-04-03T13:22:53;7.88;;;5.22;;
32108;SDS011;18624;50.042;8.436;2023-04-03T13:25:23;4.35;;;3.95;;
32108;SDS011;18624;50.042;8.436;2023-04-03T13:27:53;4.85;;;3.92;;
32108;SDS011;18624;50.042;8.436;2023-04-03T13:30:38;6.15;;;4.45;;
32108;SDS011;18624;50.042;8.436;2023-04-03T13:33:19;7.10;;;5.20;;
32108;SDS011;18624;50.042;8.436;2023-04-03T13:35:54;5.93;;;4.60;;
32108;SDS011;18624;50.042;8.436;2023-04-03T13:38:29;5.68;;;4.35;;
32108;SDS011;18624;50.042;8.436;2023-04-03T13:41:04;6.43;;;5.22;;
32108;SDS011;18624;50.042;8.436;2023-04-03T13:43:48;5.25;;;4.22;;
32108;SDS011;18624;50.042;8.436;2023-04-03T13:48:43;7.60;;;5.20;;
32108;SDS011;18624;50.042;8.436;2023-04-03T13:53:43;5.07;;;4.57;;
32108;SDS011;18624;50.042;8.436;2023-04-03T13:56:18;5.18;;;4.03;;
32108;SDS011;18624;50.042;8.436;2023-04-03T13:58:57;8.98;;;4.93;;
32108;SDS011;18624;50.042;8.436;2023-04-03T14:01:25;5.65;;;4.00;;
32108;SDS011;18624;50.042;8.436;2023-04-03T14:03:59;7.28;;;5.40;;
32108;SDS011;18624;50.042;8.436;2023-04-03T14:06:36;6.97;;;4.78;;
32108;SDS011;18624;50.042;8.436;2023-04-03T14:09:03;6.03;;;5.25;;
32108;SDS011;18624;50.042;8.436;2023-04-03T14:11:30;5.55;;;4.30;;
32108;SDS011;18624;50.042;8.436;2023-04-03T14:14:01;7.15;;;4.38;;
32108;SDS011;18624;50.042;8.436;2023-04-03T14:16:31;5.22;;;4.03;;
32108;SDS011;18624;50.042;8.436;2023-04-03T14:19:03;5.68;;;4.88;;
32108;SDS011;18624;50.042;8.436;2023-04-03T14:21:29;5.75;;;4.40;;
32108;SDS011;18624;50.042;8.436;2023-04-03T14:23:56;6.60;;;5.55;;
32108;SDS011;18624;50.042;8.436;2023-04-03T14:26:23;6.00;;;4.53;;
32108;SDS011;18624;50.042;8.436;2023-04-03T14:28:53;5.47;;;4.93;;
32108;SDS011;18624;50.042;8.436;2023-04-03T14:31:21;7.75;;;4.53;;
32108;SDS011;18624;50.042;8.436;2023-04-03T14:33:48;4.55;;;3.60;;
32108;SDS011;18624;50.042;8.436;2023-04-03T14:36:15;5.07;;;4.60;;
32108;SDS011;18624;50.042;8.436;2023-04-03T14:38:44;6.05;;;4.30;;
32108;SDS011;18624;50.042;8.436;2023-04-03T14:41:12;5.20;;;4.43;;
32108;SDS011;18624;50.042;8.436;2023-04-03T14:43:42;6.65;;;4.93;;
32108;SDS011;18624;50.042;8.436;2023-04-03T14:46:17;5.93;;;4.82;;
32108;SDS011;18624;50.042;8.436;2023-04-03T14:49:18;5.55;;;3.75;;
32108;SDS011;18624;50.042;8.436;2023-04-03T14:51:47;5.40;;;3.70;;
32108;SDS011;18624;50.042;8.436;2023-04-03T14:54:14;5.82;;;4.53;;
32108;SDS011;18624;50.042;8.436;2023-04-03T14:56:43;4.60;;;3.97;;
32108;SDS011;18624;50.042;8.436;2023-04-03T14:59:11;6.18;;;5.10;;
32108;SDS011;18624;50.042;8.436;2023-04-03T15:01:38;6.30;;;4.78;;
32108;SDS011;18624;50.042;8.436;2023-04-03T15:04:15;6.55;;;4.10;;
32108;SDS011;18624;50.042;8.436;2023-04-03T15:06:44;3.63;;;3.03;;
32108;SDS011;18624;50.042;8.436;2023-04-03T15:09:17;7.07;;;4.75;;
32108;SDS011;18624;50.042;8.436;2023-04-03T15:11:47;4.00;;;3.60;;
32108;SDS011;18624;50.042;8.436;2023-04-03T15:14:15;3.92;;;3.58;;
32108;SDS011;18624;50.042;8.436;2023-04-03T15:17:01;5.72;;;4.95;;
32108;SDS011;18624;50.042;8.436;2023-04-03T15:19:28;3.75;;;3.33;;
32108;SDS011;18624;50.042;8.436;2023-04-03T15:21:54;5.93;;;3.85;;
32108;SDS011;18624;50.042;8.436;2023-04-03T15:24:21;4.72;;;3.20;;
32108;SDS011;18624;50.042;8.436;2023-04-03T15:26:47;4.68;;;3.40;;
32108;SDS011;18624;50.042;8.436;2023-04-03T15:29:14;5.72;;;3.45;;
32108;SDS011;18624;50.042;8.436;2023-04-03T15:31:40;3.45;;;3.00;;
32108;SDS011;18624;50.042;8.436;2023-04-03T15:34:07;3.63;;;3.15;;
32108;SDS011;18624;50.042;8.436;2023-04-03T15:36:33;5.00;;;3.55;;
32108;SDS011;18624;50.042;8.436;2023-04-03T15:39:00;4.97;;;3.53;;
32108;SDS011;18624;50.042;8.436;2023-04-03T15:41:27;5.88;;;3.53;;
32108;SDS011;18624;50.042;8.436;2023-04-03T15:43:53;5.32;;;4.82;;
32108;SDS011;18624;50.042;8.436;2023-04-03T15:46:19;5.32;;;4.15;;
32108;SDS011;18624;50.042;8.436;2023-04-03T15:48:46;5.35;;;3.70;;
32108;SDS011;18624;50.042;8.436;2023-04-03T15:51:12;3.70;;;3.17;;
32108;SDS011;18624;50.042;8.436;2023-04-03T15:53:39;5.32;;;3.80;;
32108;SDS011;18624;50.042;8.436;2023-04-03T15:56:05;5.97;;;3.78;;
32108;SDS011;18624;50.042;8.436;2023-04-03T15:58:34;5.13;;;3.90;;
32108;SDS011;18624;50.042;8.436;2023-04-03T16:01:01;5.43;;;4.07;;
32108;SDS011;18624;50.042;8.436;2023-04-03T16:03:27;7.40;;;4.38;;
32108;SDS011;18624;50.042;8.436;2023-04-03T16:05:54;6.57;;;4.00;;
32108;SDS011;18624;50.042;8.436;2023-04-03T16:08:20;6.03;;;3.70;;
32108;SDS011;18624;50.042;8.436;2023-04-03T16:10:47;4.28;;;3.55;;
32108;SDS011;18624;50.042;8.436;2023-04-03T16:13:13;6.05;;;5.43;;
32108;SDS011;18624;50.042;8.436;2023-04-03T16:15:41;8.25;;;3.58;;
32108;SDS011;18624;50.042;8.436;2023-04-03T16:18:08;5.43;;;3.20;;
32108;SDS011;18624;50.042;8.436;2023-04-03T16:20:35;4.40;;;3.42;;
32108;SDS011;18624;50.042;8.436;2023-04-03T16:23:02;4.90;;;3.08;;
32108;SDS011;18624;50.042;8.436;2023-04-03T16:25:28;4.10;;;3.70;;
32108;SDS011;18624;50.042;8.436;2023-04-03T16:27:57;3.70;;;2.90;;
32108;SDS011;18624;50.042;8.436;2023-04-03T16:30:23;3.22;;;2.92;;
32108;SDS011;18624;50.042;8.436;2023-04-03T16:32:49;5.45;;;3.65;;
32108;SDS011;18624;50.042;8.436;2023-04-03T16:35:16;3.45;;;3.05;;
32108;SDS011;18624;50.042;8.436;2023-04-03T16:37:43;3.92;;;3.50;;
32108;SDS011;18624;50.042;8.436;2023-04-03T16:40:09;3.58;;;3.13;;
32108;SDS011;18624;50.042;8.436;2023-04-03T16:42:37;4.03;;;3.55;;
32108;SDS011;18624;50.042;8.436;2023-04-03T16:45:05;4.72;;;3.55;;
32108;SDS011;18624;50.042;8.436;2023-04-03T16:47:32;4.50;;;3.28;;
32108;SDS011;18624;50.042;8.436;2023-04-03T16:49:59;3.92;;;2.83;;
32108;SDS011;18624;50.042;8.436;2023-04-03T16:52:26;4.05;;;3.65;;
32108;SDS011;18624;50.042;8.436;2023-04-03T16:54:52;5.97;;;3.22;;
32108;SDS011;18624;50.042;8.436;2023-04-03T16:57:22;6.10;;;3.42;;
32108;SDS011;18624;50.042;8.436;2023-04-03T16:59:50;5.10;;;3.45;;